createdAt,value
2018-12-18T00:03:47.048Z,24.93
2018-12-18T00:08:25.760Z,16.87
2018-12-18T00:13:04.542Z,17.70
2018-12-18T00:17:43.471Z,17.70
2018-12-18T00:22:22.196Z,13.73
2018-12-18T00:27:00.985Z,11.33
2018-12-18T00:31:39.784Z,13.23
2018-12-18T00:36:18.584Z,10.83
2018-12-18T00:40:57.439Z,12.60
2018-12-18T00:45:36.584Z,15.00
2018-12-18T00:50:15.295Z,17.87
2018-12-18T00:54:54.063Z,19.97
2018-12-18T00:59:32.827Z,17.37
2018-12-18T01:04:11.517Z,14.27
2018-12-18T01:08:50.363Z,14.00
2018-12-18T01:13:29.104Z,11.43
2018-12-18T01:18:07.825Z,12.97
2018-12-18T01:22:46.496Z,10.43
2018-12-18T01:27:25.128Z,11.73
2018-12-18T01:32:03.859Z,10.33
2018-12-18T01:36:42.568Z,10.53
2018-12-18T01:41:21.323Z,13.77
2018-12-18T01:46:00.053Z,12.40
2018-12-18T01:50:38.881Z,9.17
2018-12-18T01:55:17.762Z,14.07
2018-12-18T01:59:56.432Z,17.47
2018-12-18T02:04:35.224Z,21.67
2018-12-18T02:09:14.096Z,14.43
2018-12-18T02:13:52.860Z,15.53
2018-12-18T02:18:31.696Z,16.77
2018-12-18T02:23:10.572Z,17.07
2018-12-18T02:27:49.292Z,20.37
2018-12-18T02:32:27.948Z,18.63
2018-12-18T02:37:06.576Z,23.60
2018-12-18T02:41:45.432Z,16.60
2018-12-18T02:46:24.243Z,19.50
2018-12-18T02:51:03.089Z,19.57
2018-12-18T02:55:41.763Z,17.00
2018-12-18T03:00:20.652Z,20.53
2018-12-18T03:04:59.693Z,17.27
2018-12-18T03:09:38.405Z,16.20
2018-12-18T03:14:17.177Z,13.87
2018-12-18T03:18:55.900Z,17.57
2018-12-18T03:23:34.749Z,47.67
2018-12-18T03:28:13.515Z,35.47
2018-12-18T03:32:52.521Z,13.77
2018-12-18T03:37:31.385Z,20.20
2018-12-18T03:42:10.239Z,16.80
2018-12-18T03:46:48.883Z,13.27
2018-12-18T03:51:27.531Z,12.10
2018-12-18T03:56:06.174Z,13.27
2018-12-18T04:00:44.932Z,14.67
2018-12-18T04:05:23.732Z,15.60
2018-12-18T04:10:02.505Z,15.37
2018-12-18T04:14:41.208Z,14.90
2018-12-18T04:19:20.142Z,12.00
2018-12-18T04:23:58.897Z,16.53
2018-12-18T04:28:38.062Z,18.27
2018-12-18T04:33:16.643Z,15.00
2018-12-18T04:37:55.458Z,17.60
2018-12-18T04:42:34.107Z,20.37
2018-12-18T04:47:12.920Z,42.40
2018-12-18T04:51:51.582Z,19.27
2018-12-18T04:56:30.489Z,21.53
2018-12-18T05:01:09.205Z,40.20
2018-12-18T05:05:47.958Z,32.37
2018-12-18T05:10:27.386Z,22.50
2018-12-18T05:15:06.426Z,19.60
2018-12-18T05:19:45.054Z,20.17
2018-12-18T05:24:23.712Z,22.13
2018-12-18T05:29:02.571Z,24.67
2018-12-18T05:33:41.324Z,28.47
2018-12-18T05:38:20.236Z,25.87
2018-12-18T05:42:59.079Z,32.13
2018-12-18T05:47:38.003Z,28.77
2018-12-18T05:52:16.911Z,24.67
2018-12-18T05:56:55.631Z,31.43
2018-12-18T06:01:34.484Z,32.90
2018-12-18T06:06:13.179Z,44.63
2018-12-18T06:10:52.259Z,81.77
2018-12-18T06:15:31.128Z,36.57
2018-12-18T06:20:09.961Z,27.93
2018-12-18T06:24:48.774Z,32.00
2018-12-18T06:29:27.671Z,28.17
2018-12-18T06:34:06.589Z,26.40
2018-12-18T06:38:45.225Z,27.07
2018-12-18T06:43:23.979Z,32.10
2018-12-18T06:48:02.784Z,31.00
2018-12-18T06:52:41.692Z,30.03
2018-12-18T06:57:20.497Z,43.17
2018-12-18T07:01:59.161Z,34.67
2018-12-18T07:06:37.843Z,28.13
2018-12-18T07:11:16.744Z,27.63
2018-12-18T07:15:55.611Z,27.97
2018-12-18T07:20:34.399Z,62.43
2018-12-18T07:25:13.328Z,64.53
2018-12-18T07:29:52.289Z,28.47
2018-12-18T07:34:33.491Z,20.73
2018-12-18T07:39:12.003Z,24.43
2018-12-18T07:43:50.755Z,21.60
2018-12-18T07:48:29.492Z,23.37
2018-12-18T07:53:08.328Z,27.60
2018-12-18T07:57:47.245Z,25.27
2018-12-18T08:02:26.083Z,34.80
2018-12-18T08:07:04.708Z,34.37
2018-12-18T08:11:43.516Z,27.50
2018-12-18T08:16:22.351Z,62.43
2018-12-18T08:21:00.996Z,32.73
2018-12-18T08:25:39.803Z,25.20
2018-12-18T08:30:18.507Z,32.93
2018-12-18T08:34:57.371Z,30.13
2018-12-18T08:39:36.080Z,30.40
2018-12-18T08:44:15.048Z,29.53
2018-12-18T08:48:53.727Z,27.77
2018-12-18T08:53:32.491Z,32.43
2018-12-18T08:58:11.267Z,27.20
2018-12-18T09:02:50.053Z,31.80
2018-12-18T09:07:28.745Z,38.33
2018-12-18T09:12:09.476Z,46.53
2018-12-18T09:16:53.896Z,40.33
2018-12-18T09:21:32.768Z,74.90
2018-12-18T09:26:11.397Z,74.20
2018-12-18T09:30:50.217Z,70.97
2018-12-18T09:35:29.041Z,103.60
2018-12-18T09:40:10.412Z,75.70
2018-12-18T09:44:49.204Z,48.47
2018-12-18T09:49:28.001Z,51.60
2018-12-18T09:54:06.742Z,40.70
2018-12-18T09:58:45.458Z,34.83
2018-12-18T10:03:24.293Z,49.03
2018-12-18T10:08:03.076Z,45.10
2018-12-18T10:12:45.425Z,27.27
2018-12-18T10:17:24.508Z,39.30
2018-12-18T10:22:03.301Z,31.40
2018-12-18T10:26:42.173Z,27.73
2018-12-18T10:31:20.840Z,27.33
2018-12-18T10:36:02.930Z,27.10
2018-12-18T10:40:40.508Z,26.37
2018-12-18T10:45:19.359Z,27.63
2018-12-18T10:49:58.053Z,31.93
2018-12-18T10:54:36.694Z,31.27
2018-12-18T10:59:15.359Z,28.83
2018-12-18T11:03:54.127Z,62.83
2018-12-18T11:08:32.728Z,44.40
2018-12-18T11:13:16.499Z,33.17
2018-12-18T11:17:55.323Z,24.13
2018-12-18T11:22:34.107Z,22.00
2018-12-18T11:27:12.996Z,16.17
2018-12-18T11:31:51.775Z,15.63
2018-12-18T11:36:30.473Z,10.17
2018-12-18T11:41:09.260Z,12.60
2018-12-18T11:45:48.080Z,11.95
2018-12-18T11:50:26.824Z,9.13
2018-12-18T11:55:05.704Z,9.87
2018-12-18T11:59:44.424Z,5.50
2018-12-18T12:04:23.272Z,4.73
2018-12-18T12:09:02.089Z,6.73
2018-12-18T12:13:40.744Z,6.83
2018-12-18T12:18:19.532Z,5.37
2018-12-18T12:22:58.312Z,6.60
2018-12-18T12:32:48.294Z,3.47
2018-12-18T12:37:27.080Z,3.63
2018-12-18T12:42:05.800Z,4.67
2018-12-18T12:46:44.476Z,3.67
2018-12-18T12:51:23.384Z,5.37
2018-12-18T12:56:02.085Z,3.80
2018-12-18T13:00:40.814Z,5.67
2018-12-18T13:05:19.556Z,6.37
2018-12-18T13:09:58.396Z,4.20
2018-12-18T13:14:37.336Z,4.03
2018-12-18T13:19:16.203Z,4.93
2018-12-18T13:23:54.982Z,4.87
2018-12-18T13:28:33.627Z,4.77
2018-12-18T13:33:12.393Z,5.37
2018-12-18T13:37:51.325Z,6.13
2018-12-18T13:42:30.232Z,5.13
2018-12-18T13:47:09.851Z,3.43
2018-12-18T13:51:48.560Z,4.90
2018-12-18T13:56:27.279Z,3.63
2018-12-18T14:01:06.870Z,5.33
2018-12-18T14:05:46.050Z,4.33
2018-12-18T14:10:24.905Z,5.67
2018-12-18T14:15:04.348Z,4.60
2018-12-18T14:19:43.086Z,3.83
2018-12-18T14:24:21.786Z,5.07
2018-12-18T14:29:01.377Z,4.50
2018-12-18T14:33:41.175Z,6.37
2018-12-18T14:38:19.971Z,4.37
2018-12-18T14:42:58.757Z,6.00
2018-12-18T14:47:42.351Z,4.60
2018-12-18T14:52:25.026Z,5.67
2018-12-18T14:57:08.989Z,6.77
2018-12-18T15:01:51.096Z,5.67
2018-12-18T15:06:29.860Z,10.83
2018-12-18T15:11:09.253Z,4.87
2018-12-18T15:15:48.463Z,9.37
2018-12-18T15:20:27.287Z,7.93
2018-12-18T15:25:06.468Z,14.80
2018-12-18T15:29:45.705Z,15.33
2018-12-18T15:34:24.798Z,8.43
2018-12-18T15:39:05.985Z,8.37
2018-12-18T15:43:44.797Z,20.97
2018-12-18T15:48:24.035Z,26.47
2018-12-18T15:53:04.720Z,25.20
2018-12-18T15:57:55.363Z,11.53
2018-12-18T16:02:34.112Z,10.93
2018-12-18T16:07:16.091Z,7.30
2018-12-18T16:11:55.070Z,10.93
2018-12-18T16:16:33.902Z,15.70
2018-12-18T16:21:14.413Z,19.83
2018-12-18T16:25:53.222Z,21.93
2018-12-18T16:30:32.085Z,13.40
2018-12-18T16:35:11.231Z,11.10
2018-12-18T16:39:50.794Z,18.63
2018-12-18T16:44:29.775Z,16.60
2018-12-18T16:49:10.826Z,113.37
2018-12-18T16:53:49.683Z,55.20
2018-12-18T16:58:28.811Z,42.33
2018-12-18T17:03:10.511Z,28.67
2018-12-18T17:07:49.278Z,37.20
2018-12-18T17:12:28.400Z,25.97
2018-12-18T17:17:07.287Z,34.33
2018-12-18T17:21:46.010Z,41.83
2018-12-18T17:26:24.735Z,28.87
2018-12-18T17:31:03.603Z,23.50
2018-12-18T17:35:43.707Z,23.90
2018-12-18T17:40:22.491Z,19.57
2018-12-18T17:45:01.225Z,16.77
2018-12-18T17:49:40.326Z,17.73
2018-12-18T17:54:20.191Z,19.00
2018-12-18T17:58:59.024Z,24.77
2018-12-18T18:03:39.828Z,36.00
2018-12-18T18:08:18.986Z,33.20
2018-12-18T18:12:57.837Z,29.60
2018-12-18T18:17:36.710Z,68.30
2018-12-18T18:22:15.487Z,54.57
2018-12-18T18:26:54.304Z,61.00
2018-12-18T18:31:33.862Z,49.17
2018-12-18T18:36:14.714Z,41.40
2018-12-18T18:40:53.866Z,53.50
2018-12-18T18:45:32.876Z,26.93
2018-12-18T18:50:11.597Z,76.00
2018-12-18T18:54:50.496Z,51.03
2018-12-18T18:59:29.388Z,37.13
2018-12-18T19:04:08.376Z,34.27
2018-12-18T19:08:47.220Z,45.47
2018-12-18T19:13:25.993Z,41.00
2018-12-18T19:18:06.230Z,45.40
2018-12-18T19:22:45.191Z,57.50
2018-12-18T19:27:24.204Z,49.03
2018-12-18T19:32:03.333Z,40.50
2018-12-18T19:36:42.292Z,44.97
2018-12-18T19:41:21.239Z,31.60
2018-12-18T19:46:00.281Z,30.10
2018-12-18T19:50:39.080Z,21.47
2018-12-18T19:55:18.601Z,49.17
2018-12-18T19:59:57.688Z,41.83
2018-12-18T20:04:36.904Z,45.13
2018-12-18T20:09:15.869Z,28.93
2018-12-18T20:13:54.580Z,24.27
2018-12-18T20:18:35.112Z,17.27
2018-12-18T20:23:15.420Z,22.73
2018-12-18T20:27:55.565Z,23.07
2018-12-18T20:32:34.959Z,20.43
2018-12-18T20:37:18.197Z,27.30
2018-12-18T20:41:56.291Z,23.70
2018-12-18T20:46:35.254Z,23.90
2018-12-18T20:51:16.027Z,30.70
2018-12-18T20:55:55.668Z,35.73
2018-12-18T21:00:34.602Z,32.20
2018-12-18T21:05:14.259Z,26.00
2018-12-18T21:09:53.145Z,21.20
2018-12-18T21:14:31.943Z,23.03
2018-12-18T21:19:11.123Z,23.20
2018-12-18T21:23:50.756Z,26.93
2018-12-18T21:28:29.703Z,27.17
2018-12-18T21:33:08.428Z,31.33
2018-12-18T21:37:47.828Z,54.57
2018-12-18T21:42:26.803Z,55.83
2018-12-18T21:47:05.664Z,49.90
2018-12-18T21:51:44.834Z,48.43
2018-12-18T21:56:23.562Z,39.10
2018-12-18T22:01:02.518Z,50.57
2018-12-18T22:05:41.994Z,34.70
2018-12-18T22:10:21.258Z,29.90
2018-12-18T22:15:01.293Z,28.37
2018-12-18T22:19:40.226Z,45.63
2018-12-18T22:24:18.982Z,33.90
2018-12-18T22:28:58.053Z,29.60
2018-12-18T22:33:36.680Z,33.73
2018-12-18T22:38:16.847Z,29.63
2018-12-18T22:42:55.850Z,28.40
2018-12-18T22:47:34.675Z,27.67
2018-12-18T22:52:15.114Z,17.67
2018-12-18T22:56:56.296Z,23.67
2018-12-18T23:01:38.080Z,20.27
2018-12-18T23:06:16.677Z,17.37
2018-12-18T23:10:55.405Z,25.93
2018-12-18T23:15:34.100Z,22.87
2018-12-18T23:20:12.912Z,35.67
2018-12-18T23:24:51.671Z,28.23
2018-12-18T23:29:30.643Z,37.13
2018-12-18T23:34:09.469Z,29.13
2018-12-18T23:38:48.995Z,22.30
2018-12-18T23:43:27.706Z,21.60
2018-12-18T23:48:06.562Z,16.00
2018-12-18T23:52:45.314Z,21.63
2018-12-18T23:57:24.137Z,20.50
